createdAt,value
2022-11-08T00:02:16.505Z,20.16
2022-11-08T00:05:26.734Z,20.17
2022-11-08T00:08:35.359Z,20.18
2022-11-08T00:11:45.348Z,20.18
2022-11-08T00:14:36.531Z,20.18
2022-11-08T00:17:28.415Z,20.18
2022-11-08T00:20:19.040Z,20.19
2022-11-08T00:23:09.771Z,20.18
2022-11-08T00:26:00.274Z,20.18
2022-11-08T00:28:50.788Z,20.18
2022-11-08T00:31:41.200Z,20.17
2022-11-08T00:34:31.880Z,20.17
2022-11-08T00:37:22.723Z,20.16
2022-11-08T00:40:14.606Z,20.16
2022-11-08T00:43:05.049Z,20.16
2022-11-08T00:45:55.766Z,20.15
2022-11-08T00:48:46.458Z,20.15
2022-11-08T00:51:37.065Z,20.16
2022-11-08T00:54:27.661Z,20.15
2022-11-08T00:57:18.110Z,20.15
2022-11-08T01:00:12.535Z,20.15
2022-11-08T01:03:21.514Z,20.14
2022-11-08T01:06:13.060Z,20.14
2022-11-08T01:09:04.355Z,20.14
2022-11-08T01:11:55.108Z,20.14
2022-11-08T01:14:45.968Z,20.15
2022-11-08T01:17:36.439Z,20.14
2022-11-08T01:20:27.675Z,20.15
2022-11-08T01:23:18.692Z,20.15
2022-11-08T01:26:12.848Z,20.15
2022-11-08T01:29:03.301Z,20.15
2022-11-08T01:31:53.784Z,20.15
2022-11-08T01:34:44.201Z,20.15
2022-11-08T01:37:35.004Z,20.15
2022-11-08T01:40:25.406Z,20.15
2022-11-08T01:43:43.599Z,20.14
2022-11-08T01:46:39.406Z,20.14
2022-11-08T01:49:44.567Z,20.13
2022-11-08T01:52:35.920Z,20.14
2022-11-08T01:55:27.953Z,20.14
2022-11-08T01:58:20.152Z,20.14
2022-11-08T02:01:10.846Z,20.14
2022-11-08T02:04:01.513Z,20.14
2022-11-08T02:06:52.066Z,20.14
2022-11-08T02:09:45.211Z,20.14
2022-11-08T02:12:35.661Z,20.14
2022-11-08T02:15:26.207Z,20.14
2022-11-08T02:18:17.615Z,20.14
2022-11-08T02:21:11.559Z,20.15
2022-11-08T02:24:04.878Z,20.14
2022-11-08T02:26:55.541Z,20.14
2022-11-08T02:29:46.040Z,20.14
2022-11-08T02:32:40.364Z,20.14
2022-11-08T02:35:30.741Z,20.14
2022-11-08T02:38:21.573Z,20.14
2022-11-08T02:41:12.117Z,20.14
2022-11-08T02:44:02.627Z,20.14
2022-11-08T02:46:53.172Z,20.15
2022-11-08T02:49:44.030Z,20.14
2022-11-08T02:52:34.506Z,20.15
2022-11-08T02:55:25.401Z,20.14
2022-11-08T02:58:16.311Z,20.14
2022-11-08T03:01:07.510Z,20.14
2022-11-08T03:03:58.044Z,20.15
2022-11-08T03:06:48.693Z,20.15
2022-11-08T03:09:39.095Z,20.16
2022-11-08T03:12:29.942Z,20.15
2022-11-08T03:15:20.676Z,20.15
2022-11-08T03:18:11.423Z,20.16
2022-11-08T03:21:01.874Z,20.15
2022-11-08T03:23:52.335Z,20.16
2022-11-08T03:26:43.021Z,20.16
2022-11-08T03:29:33.472Z,20.16
2022-11-08T03:32:24.001Z,20.15
2022-11-08T03:35:14.867Z,20.16
2022-11-08T03:38:05.437Z,20.15
2022-11-08T03:40:55.913Z,20.15
2022-11-08T03:43:46.437Z,20.15
2022-11-08T03:46:36.873Z,20.15
2022-11-08T03:49:27.797Z,20.16
2022-11-08T03:52:18.533Z,20.16
2022-11-08T03:55:11.384Z,20.16
2022-11-08T03:58:01.971Z,20.16
2022-11-08T04:00:52.634Z,20.16
2022-11-08T04:03:43.189Z,20.16
2022-11-08T04:06:33.669Z,20.16
2022-11-08T04:09:24.181Z,20.16
2022-11-08T04:12:33.321Z,20.16
2022-11-08T04:15:24.161Z,20.15
2022-11-08T04:18:33.135Z,20.15
2022-11-08T04:21:23.784Z,20.15
2022-11-08T04:24:14.297Z,20.15
2022-11-08T04:27:04.965Z,20.16
2022-11-08T04:29:56.559Z,20.17
2022-11-08T04:32:47.014Z,20.18
2022-11-08T04:35:37.496Z,20.19
2022-11-08T04:38:27.950Z,20.19
2022-11-08T04:41:19.994Z,20.19
2022-11-08T04:44:11.211Z,20.19
2022-11-08T04:47:01.708Z,20.20
2022-11-08T04:49:52.161Z,20.20
2022-11-08T04:52:43.239Z,20.19
2022-11-08T04:55:33.800Z,20.18
2022-11-08T04:58:24.420Z,20.17
2022-11-08T05:01:17.007Z,20.17
2022-11-08T05:04:07.700Z,20.18
2022-11-08T05:06:58.220Z,20.17
2022-11-08T05:09:50.735Z,20.16
2022-11-08T05:12:44.072Z,20.16
2022-11-08T05:15:37.699Z,20.15
2022-11-08T05:18:28.453Z,20.15
2022-11-08T05:21:38.841Z,20.15
2022-11-08T05:24:33.208Z,20.14
2022-11-08T05:27:23.679Z,20.14
2022-11-08T05:30:15.053Z,20.13
2022-11-08T05:33:05.792Z,20.13
2022-11-08T05:35:56.718Z,20.13
2022-11-08T05:38:47.487Z,20.13
2022-11-08T05:41:38.478Z,20.13
2022-11-08T05:44:29.211Z,20.12
2022-11-08T05:47:20.639Z,20.13
2022-11-08T05:50:15.469Z,20.13
2022-11-08T05:53:09.498Z,20.13
2022-11-08T05:56:01.626Z,20.13
2022-11-08T05:58:52.106Z,20.13
2022-11-08T06:01:42.804Z,20.13
2022-11-08T06:04:33.882Z,20.12
2022-11-08T06:07:24.612Z,20.12
2022-11-08T06:10:15.277Z,20.11
2022-11-08T06:13:09.220Z,20.10
2022-11-08T06:16:02.582Z,20.10
2022-11-08T06:18:53.610Z,20.10
2022-11-08T06:21:45.628Z,20.10
2022-11-08T06:24:36.258Z,20.10
2022-11-08T06:27:26.976Z,20.10
2022-11-08T06:30:17.798Z,20.10
2022-11-08T06:33:08.631Z,20.09
2022-11-08T06:35:59.885Z,20.09
2022-11-08T06:38:54.541Z,20.09
2022-11-08T06:41:50.073Z,20.08
2022-11-08T06:44:41.077Z,20.08
2022-11-08T06:47:31.840Z,20.07
2022-11-08T06:50:24.364Z,20.06
2022-11-08T06:53:16.366Z,20.05
2022-11-08T06:56:08.647Z,20.05
2022-11-08T06:58:59.253Z,20.05
2022-11-08T07:01:55.252Z,20.05
2022-11-08T07:04:44.916Z,20.05
2022-11-08T07:07:36.656Z,20.04
2022-11-08T07:10:28.440Z,20.04
2022-11-08T07:13:19.511Z,20.05
2022-11-08T07:16:11.898Z,20.05
2022-11-08T07:19:05.074Z,20.05
2022-11-08T07:21:56.353Z,20.06
2022-11-08T07:24:46.937Z,20.08
2022-11-08T07:27:37.659Z,20.08
2022-11-08T07:30:28.765Z,20.09
2022-11-08T07:33:19.565Z,20.09
2022-11-08T07:36:11.242Z,20.09
2022-11-08T07:39:06.488Z,20.10
2022-11-08T07:41:57.746Z,20.09
2022-11-08T07:44:49.457Z,20.09
2022-11-08T07:47:40.205Z,20.09
2022-11-08T07:50:30.895Z,20.09
2022-11-08T07:53:21.595Z,20.09
2022-11-08T07:56:12.130Z,20.10
2022-11-08T07:59:02.723Z,20.09
2022-11-08T08:01:53.424Z,20.09
2022-11-08T08:04:44.022Z,20.09
2022-11-08T08:07:35.477Z,20.09
2022-11-08T08:10:27.362Z,20.09
2022-11-08T08:13:18.426Z,20.09
2022-11-08T08:16:09.688Z,20.09
2022-11-08T08:19:02.269Z,20.09
2022-11-08T08:21:54.044Z,20.09
2022-11-08T08:24:44.798Z,20.09
2022-11-08T08:27:35.199Z,20.09
2022-11-08T08:30:25.767Z,20.09
2022-11-08T08:33:32.462Z,20.09
2022-11-08T08:36:23.286Z,20.10
2022-11-08T08:39:13.821Z,20.11
2022-11-08T08:42:04.774Z,20.10
2022-11-08T08:44:55.649Z,20.12
2022-11-08T08:47:46.475Z,20.11
2022-11-08T08:50:37.067Z,20.11
2022-11-08T08:53:27.982Z,20.12
2022-11-08T08:56:18.716Z,20.12
2022-11-08T09:02:19.559Z,20.14
2022-11-08T09:05:11.173Z,20.14
2022-11-08T09:08:01.561Z,20.16
2022-11-08T09:10:55.698Z,20.18
2022-11-08T09:13:46.600Z,20.19
2022-11-08T09:16:37.306Z,20.20
2022-11-08T09:19:28.322Z,20.20
2022-11-08T09:22:18.767Z,20.21
2022-11-08T09:25:10.416Z,20.22
2022-11-08T09:28:00.748Z,20.23
2022-11-08T09:30:51.029Z,20.23
2022-11-08T09:33:41.639Z,20.24
2022-11-08T09:36:32.206Z,20.24
2022-11-08T09:39:22.600Z,20.25
2022-11-08T09:42:44.762Z,20.25
2022-11-08T09:45:36.311Z,20.25
2022-11-08T09:48:33.590Z,20.25
2022-11-08T09:51:24.956Z,20.26
2022-11-08T09:54:19.900Z,20.27
2022-11-08T09:57:13.921Z,20.27
2022-11-08T10:00:10.265Z,20.27
2022-11-08T10:03:01.464Z,20.28
2022-11-08T10:06:13.623Z,20.29
2022-11-08T10:09:14.196Z,20.30
2022-11-08T10:12:13.302Z,20.31
2022-11-08T10:15:14.692Z,20.32
2022-11-08T10:18:39.986Z,20.33
2022-11-08T10:21:56.433Z,20.33
2022-11-08T10:24:50.651Z,20.34
2022-11-08T10:27:42.657Z,20.35
2022-11-08T10:30:35.498Z,20.35
2022-11-08T10:33:29.408Z,20.36
2022-11-08T10:36:24.039Z,20.36
2022-11-08T10:39:17.595Z,20.36
2022-11-08T10:42:10.192Z,20.37
2022-11-08T10:45:00.818Z,20.37
2022-11-08T10:47:51.772Z,20.38
2022-11-08T10:50:44.919Z,20.39
2022-11-08T10:53:35.291Z,20.39
2022-11-08T10:56:25.570Z,20.40
2022-11-08T10:59:29.638Z,20.39
2022-11-08T11:02:29.650Z,20.40
2022-11-08T11:05:28.563Z,20.41
2022-11-08T11:08:19.503Z,20.42
2022-11-08T11:11:25.300Z,20.41
2022-11-08T11:14:22.273Z,20.42
2022-11-08T11:17:18.062Z,20.42
2022-11-08T11:20:21.629Z,20.42
2022-11-08T11:23:13.607Z,20.43
2022-11-08T11:26:04.586Z,20.43
2022-11-08T11:29:16.764Z,20.43
2022-11-08T11:32:25.142Z,20.43
2022-11-08T11:35:15.649Z,20.43
2022-11-08T11:38:08.255Z,20.44
2022-11-08T11:41:08.320Z,20.44
2022-11-08T11:44:10.604Z,20.43
2022-11-08T11:47:04.119Z,20.44
2022-11-08T11:49:54.837Z,20.43
2022-11-08T11:52:45.553Z,20.43
2022-11-08T11:55:47.020Z,20.43
2022-11-08T11:58:54.536Z,20.44
2022-11-08T12:02:14.381Z,20.43
2022-11-08T12:05:27.945Z,20.43
2022-11-08T12:08:25.027Z,20.43
2022-11-08T12:11:41.140Z,20.43
2022-11-08T12:14:51.191Z,20.44
2022-11-08T12:18:07.716Z,20.44
2022-11-08T12:21:06.710Z,20.43
2022-11-08T12:24:07.953Z,20.44
2022-11-08T12:27:05.553Z,20.44
2022-11-08T12:30:01.554Z,20.44
2022-11-08T12:33:06.935Z,20.45
2022-11-08T12:36:06.698Z,20.44
2022-11-08T12:39:05.115Z,20.43
2022-11-08T12:42:05.130Z,20.44
2022-11-08T12:45:22.629Z,20.42
2022-11-08T12:48:20.795Z,20.41
2022-11-08T12:51:17.008Z,20.40
2022-11-08T12:54:22.916Z,20.40
2022-11-08T12:57:16.259Z,20.39
2022-11-08T13:00:14.336Z,20.38
2022-11-08T13:03:22.166Z,20.37
2022-11-08T13:06:17.444Z,20.37
2022-11-08T13:09:14.947Z,20.37
2022-11-08T13:12:15.791Z,20.36
2022-11-08T13:15:18.645Z,20.37
2022-11-08T13:18:34.241Z,20.37
2022-11-08T13:21:40.557Z,20.37
2022-11-08T13:24:44.397Z,20.38
2022-11-08T13:27:36.922Z,20.38
2022-11-08T13:30:47.938Z,20.39
2022-11-08T13:33:38.879Z,20.39
2022-11-08T13:36:37.146Z,20.39
2022-11-08T13:39:53.784Z,20.40
2022-11-08T13:43:20.620Z,20.41
2022-11-08T13:46:48.374Z,20.42
2022-11-08T13:49:39.092Z,20.43
2022-11-08T13:52:46.059Z,20.44
2022-11-08T13:55:49.679Z,20.45
2022-11-08T13:58:41.760Z,20.45
2022-11-08T14:02:03.001Z,20.45
2022-11-08T14:04:55.457Z,20.45
2022-11-08T14:07:47.881Z,20.45
2022-11-08T14:11:22.906Z,20.45
2022-11-08T14:14:41.665Z,20.45
2022-11-08T14:17:52.102Z,20.45
2022-11-08T14:20:43.498Z,20.45
2022-11-08T14:23:35.790Z,20.47
2022-11-08T14:26:27.046Z,20.46
2022-11-08T14:29:19.560Z,20.47
2022-11-08T14:32:20.399Z,20.46
2022-11-08T14:35:23.890Z,20.47
2022-11-08T14:38:16.676Z,20.46
2022-11-08T14:41:11.741Z,20.46
2022-11-08T14:44:03.238Z,20.46
2022-11-08T14:46:54.523Z,20.45
2022-11-08T14:49:45.085Z,20.46
2022-11-08T14:52:35.797Z,20.45
2022-11-08T14:55:28.790Z,20.44
2022-11-08T14:58:19.904Z,20.43
2022-11-08T15:01:11.044Z,20.44
2022-11-08T15:04:04.241Z,20.42
2022-11-08T15:06:56.550Z,20.42
2022-11-08T15:09:47.054Z,20.42
2022-11-08T15:12:41.926Z,20.42
2022-11-08T15:15:33.477Z,20.41
2022-11-08T15:18:28.671Z,20.41
2022-11-08T15:21:29.041Z,20.40
2022-11-08T15:24:27.735Z,20.40
2022-11-08T15:27:18.269Z,20.39
2022-11-08T15:30:17.053Z,20.39
2022-11-08T15:33:20.630Z,20.38
2022-11-08T15:36:14.116Z,20.37
2022-11-08T15:39:07.019Z,20.37
2022-11-08T15:42:01.977Z,20.37
2022-11-08T15:45:04.356Z,20.37
2022-11-08T15:48:00.411Z,20.37
2022-11-08T15:50:50.511Z,20.38
2022-11-08T15:53:41.299Z,20.37
2022-11-08T15:56:31.869Z,20.38
2022-11-08T15:59:24.541Z,20.39
2022-11-08T16:02:15.280Z,20.38
2022-11-08T16:05:15.228Z,20.38
2022-11-08T16:08:08.299Z,20.39
2022-11-08T16:11:00.986Z,20.40
2022-11-08T16:13:51.518Z,20.41
2022-11-08T16:16:42.350Z,20.42
2022-11-08T16:19:34.452Z,20.42
2022-11-08T16:22:25.145Z,20.43
2022-11-08T16:25:15.876Z,20.44
2022-11-08T16:28:11.556Z,20.45
2022-11-08T16:31:03.406Z,20.45
2022-11-08T16:33:55.387Z,20.45
2022-11-08T16:36:49.741Z,20.46
2022-11-08T16:39:42.676Z,20.46
2022-11-08T16:42:33.595Z,20.47
2022-11-08T16:45:43.234Z,20.47
2022-11-08T16:48:35.445Z,20.48
2022-11-08T16:51:26.512Z,20.48
2022-11-08T16:54:23.235Z,20.49
2022-11-08T16:57:33.756Z,20.49
2022-11-08T17:00:28.395Z,20.49
2022-11-08T17:03:24.198Z,20.49
2022-11-08T17:06:17.361Z,20.49
2022-11-08T17:09:08.247Z,20.51
2022-11-08T17:11:58.903Z,20.51
2022-11-08T17:14:49.864Z,20.52
2022-11-08T17:17:40.931Z,20.52
2022-11-08T17:20:31.446Z,20.53
2022-11-08T17:23:23.214Z,20.53
2022-11-08T17:26:14.109Z,20.54
2022-11-08T17:29:07.578Z,20.55
2022-11-08T17:31:58.245Z,20.55
2022-11-08T17:34:48.874Z,20.56
2022-11-08T17:37:39.579Z,20.56
2022-11-08T17:40:30.239Z,20.57
2022-11-08T17:43:21.144Z,20.57
2022-11-08T17:46:12.057Z,20.57
2022-11-08T17:49:02.504Z,20.58
2022-11-08T17:51:53.053Z,20.58
2022-11-08T17:54:44.565Z,20.58
2022-11-08T17:57:37.609Z,20.58
2022-11-08T18:00:28.169Z,20.58
2022-11-08T18:03:18.888Z,20.58
2022-11-08T18:06:11.477Z,20.58
2022-11-08T18:09:02.495Z,20.57
2022-11-08T18:11:56.855Z,20.57
2022-11-08T18:14:47.361Z,20.59
2022-11-08T18:17:37.929Z,20.59
2022-11-08T18:20:28.828Z,20.60
2022-11-08T18:23:19.655Z,20.61
2022-11-08T18:26:19.531Z,20.62
2022-11-08T18:29:10.443Z,20.63
2022-11-08T18:32:01.289Z,20.63
2022-11-08T18:34:51.760Z,20.64
2022-11-08T18:37:51.668Z,20.63
2022-11-08T18:40:52.591Z,20.64
2022-11-08T18:43:44.062Z,20.64
2022-11-08T18:46:40.213Z,20.63
2022-11-08T18:49:39.249Z,20.64
2022-11-08T18:52:29.764Z,20.63
2022-11-08T18:55:20.760Z,20.64
2022-11-08T18:58:11.505Z,20.63
2022-11-08T19:01:01.955Z,20.64
2022-11-08T19:03:52.811Z,20.63
2022-11-08T19:06:50.073Z,20.64
2022-11-08T19:09:43.915Z,20.64
2022-11-08T19:12:34.564Z,20.63
2022-11-08T19:15:28.200Z,20.63
2022-11-08T19:18:29.016Z,20.63
2022-11-08T19:21:23.350Z,20.63
2022-11-08T19:24:16.393Z,20.63
2022-11-08T19:27:09.950Z,20.63
2022-11-08T19:30:04.590Z,20.63
2022-11-08T19:32:55.203Z,20.62
2022-11-08T19:35:54.764Z,20.61
2022-11-08T19:38:45.795Z,20.60
2022-11-08T19:41:36.412Z,20.60
2022-11-08T19:44:27.089Z,20.60
2022-11-08T19:47:17.900Z,20.59
2022-11-08T19:50:11.920Z,20.59
2022-11-08T19:53:06.552Z,20.59
2022-11-08T19:56:02.007Z,20.58
2022-11-08T19:58:57.872Z,20.58
2022-11-08T20:01:48.748Z,20.57
2022-11-08T20:04:41.152Z,20.57
2022-11-08T20:07:33.016Z,20.57
2022-11-08T20:10:26.828Z,20.57
2022-11-08T20:13:20.607Z,20.56
2022-11-08T20:16:14.145Z,20.57
2022-11-08T20:19:07.242Z,20.58
2022-11-08T20:21:59.785Z,20.57
2022-11-08T20:24:50.386Z,20.58
2022-11-08T20:27:40.988Z,20.57
2022-11-08T20:30:31.711Z,20.58
2022-11-08T20:33:22.579Z,20.59
2022-11-08T20:36:14.843Z,20.59
2022-11-08T20:39:08.408Z,20.60
2022-11-08T20:42:00.767Z,20.61
2022-11-08T20:44:54.190Z,20.62
2022-11-08T20:47:44.829Z,20.61
2022-11-08T20:50:42.867Z,20.61
2022-11-08T20:53:36.419Z,20.62
2022-11-08T20:56:29.141Z,20.62
2022-11-08T20:59:20.138Z,20.63
2022-11-08T21:02:12.676Z,20.63
2022-11-08T21:05:06.780Z,20.63
2022-11-08T21:08:04.905Z,20.64
2022-11-08T21:11:10.345Z,20.64
2022-11-08T21:14:08.997Z,20.64
2022-11-08T21:20:17.686Z,20.65
2022-11-08T21:23:09.644Z,20.65
2022-11-08T21:26:07.074Z,20.65
2022-11-08T21:29:03.474Z,20.66
2022-11-08T21:31:54.676Z,20.66
2022-11-08T21:34:50.540Z,20.66
2022-11-08T21:37:42.501Z,20.67
2022-11-08T21:40:37.250Z,20.67
2022-11-08T21:43:29.102Z,20.67
2022-11-08T21:46:25.581Z,20.68
2022-11-08T21:49:25.756Z,20.68
2022-11-08T21:52:28.086Z,20.68
2022-11-08T21:55:20.058Z,20.69
2022-11-08T21:58:13.312Z,20.68
2022-11-08T22:01:10.727Z,20.68
2022-11-08T22:04:04.328Z,20.69
2022-11-08T22:06:58.462Z,20.68
2022-11-08T22:09:59.257Z,20.68
2022-11-08T22:12:49.985Z,20.68
2022-11-08T22:15:40.542Z,20.68
2022-11-08T22:18:50.732Z,20.67
2022-11-08T22:21:43.719Z,20.67
2022-11-08T22:24:34.278Z,20.66
2022-11-08T22:27:26.248Z,20.66
2022-11-08T22:30:17.351Z,20.66
2022-11-08T22:33:07.675Z,20.65
2022-11-08T22:36:01.894Z,20.66
2022-11-08T22:38:52.391Z,20.65
2022-11-08T22:41:43.547Z,20.65
2022-11-08T22:44:34.233Z,20.65
2022-11-08T22:47:24.855Z,20.65
2022-11-08T22:50:15.415Z,20.65
2022-11-08T22:53:05.874Z,20.65
2022-11-08T22:56:23.797Z,20.66
2022-11-08T22:59:17.641Z,20.67
2022-11-08T23:02:11.750Z,20.68
2022-11-08T23:05:02.598Z,20.67
2022-11-08T23:07:53.301Z,20.67
2022-11-08T23:11:02.553Z,20.67
2022-11-08T23:14:11.365Z,20.67
2022-11-08T23:17:02.165Z,20.67
2022-11-08T23:20:10.991Z,20.66
2022-11-08T23:23:19.875Z,20.66
2022-11-08T23:26:10.520Z,20.66
2022-11-08T23:29:19.334Z,20.65
2022-11-08T23:32:09.933Z,20.64
2022-11-08T23:35:00.549Z,20.64
2022-11-08T23:37:51.143Z,20.64
2022-11-08T23:40:59.733Z,20.64
2022-11-08T23:44:08.492Z,20.64
2022-11-08T23:46:59.624Z,20.64
2022-11-08T23:49:49.929Z,20.64
2022-11-08T23:52:40.651Z,20.64
2022-11-08T23:55:30.966Z,20.63
2022-11-08T23:58:21.351Z,20.63
